Time;durP1;ratioP1;P1;durP2;ratioP2;P2;SDS_P1;SDS_P2;PMS_P1;PMS_P2;Temp;Humidity;BMP_temperature;BMP_pressure;BME280_temperature;BME280_humidity;BME280_pressure;Samples;Min_cycle;Max_cycle;Signal;HPM_P1;HPM_P2
2023/03/15 00:02:08;;;;;;;11.93;1.60;;;;;;;3.77;100.00;99444.50;12210632;19;20030;-84
2023/03/15 00:06:11;;;;;;;6.90;1.60;;;;;;;3.59;100.00;99451.47;12226990;19;20010;-83
2023/03/15 00:10:13;;;;;;;6.22;1.50;;;;;;;3.39;100.00;99453.38;12247205;19;20043;-84
2023/03/15 00:14:15;;;;;;;3.65;1.48;;;;;;;3.25;100.00;99465.38;12248579;19;20006;-84
2023/03/15 00:18:21;;;;;;;3.65;1.65;;;;;;;3.11;100.00;99465.38;12260943;19;20074;-84
2023/03/15 00:22:23;;;;;;;7.95;1.83;;;;;;;3.00;100.00;99470.59;12275560;19;19999;-84
2023/03/15 00:26:24;;;;;;;6.95;2.03;;;;;;;2.88;100.00;99473.09;12227678;19;20248;-83
2023/03/15 00:30:26;;;;;;;7.57;1.60;;;;;;;2.76;100.00;99486.50;12216915;19;20090;-83
2023/03/15 00:34:28;;;;;;;6.72;1.60;;;;;;;2.65;100.00;99495.28;12211264;19;20003;-83
2023/03/15 00:38:29;;;;;;;7.97;1.42;;;;;;;2.52;100.00;99501.50;12192326;19;20006;-84
2023/03/15 00:42:32;;;;;;;5.70;1.98;;;;;;;2.42;100.00;99506.50;12219040;19;20084;-84
2023/03/15 00:46:34;;;;;;;4.88;1.75;;;;;;;2.33;100.00;99514.00;12221805;19;20062;-84
2023/03/15 00:50:35;;;;;;;4.55;1.55;;;;;;;2.26;100.00;99510.41;12221754;19;20007;-84
2023/03/15 00:54:37;;;;;;;5.97;1.70;;;;;;;2.17;100.00;99509.78;12241392;19;20010;-84
2023/03/15 00:58:39;;;;;;;6.10;1.58;;;;;;;2.08;100.00;99513.69;12224552;19;20007;-84
2023/03/15 01:02:40;;;;;;;8.55;1.80;;;;;;;1.99;100.00;99515.75;12195769;19;20033;-83
2023/03/15 01:06:42;;;;;;;9.02;1.38;;;;;;;1.88;100.00;99521.75;12218048;19;20003;-83
2023/03/15 01:10:43;;;;;;;6.82;1.40;;;;;;;1.79;100.00;99521.06;12216970;19;20007;-83
2023/03/15 01:14:45;;;;;;;4.53;1.35;;;;;;;1.74;100.00;99534.41;12191461;19;20003;-84
2023/03/15 01:18:52;;;;;;;5.93;1.70;;;;;;;1.67;100.00;99544.41;12204447;19;20018;-83
2023/03/15 01:22:54;;;;;;;5.07;1.70;;;;;;;1.62;100.00;99557.72;12207666;19;20011;-83
2023/03/15 01:26:55;;;;;;;9.05;1.55;;;;;;;1.59;100.00;99555.41;12183387;19;20074;-83
2023/03/15 01:30:57;;;;;;;6.05;1.73;;;;;;;1.57;100.00;99552.88;12207366;19;20006;-83
2023/03/15 01:35:00;;;;;;;5.13;1.60;;;;;;;1.51;100.00;99564.53;12197884;19;20002;-83
2023/03/15 01:39:02;;;;;;;5.63;1.70;;;;;;;1.44;100.00;99566.38;12208269;19;20102;-83
2023/03/15 01:43:19;;;;;;;6.50;1.92;;;;;;;1.40;100.00;99562.38;12197576;19;20018;-83
2023/03/15 01:47:24;;;;;;;6.40;1.65;;;;;;;1.33;100.00;99556.88;12179286;19;20000;-83
2023/03/15 01:51:46;;;;;;;4.07;1.20;;;;;;;1.27;100.00;99554.13;12197217;19;20029;-83
2023/03/15 01:55:53;;;;;;;4.43;1.77;;;;;;;1.23;100.00;99563.69;12199502;19;20038;-83
2023/03/15 02:00:10;;;;;;;4.05;1.50;;;;;;;1.22;100.00;99579.16;12181360;19;20094;-84
2023/03/15 02:04:30;;;;;;;10.38;2.22;;;;;;;1.17;100.00;99583.47;12195399;19;20039;-83
2023/03/15 02:08:38;;;;;;;7.70;1.73;;;;;;;1.17;100.00;99578.03;12179866;19;20006;-83
2023/03/15 02:12:50;;;;;;;6.57;1.70;;;;;;;1.19;100.00;99586.81;12196963;19;20511;-84
2023/03/15 02:16:52;;;;;;;3.35;1.60;;;;;;;1.15;100.00;99591.78;12199818;19;20007;-84
2023/03/15 02:21:31;;;;;;;6.15;1.55;;;;;;;1.14;100.00;99584.69;12169266;19;20006;-83
2023/03/15 02:26:06;;;;;;;6.10;1.60;;;;;;;1.09;100.00;99585.28;12192243;19;20043;-84
2023/03/15 02:30:09;;;;;;;4.60;1.73;;;;;;;1.04;100.00;99576.88;12174730;19;20039;-84
2023/03/15 02:34:11;;;;;;;3.90;1.58;;;;;;;1.02;100.00;99580.81;12193923;19;20007;-84
2023/03/15 02:38:14;;;;;;;5.35;1.52;;;;;;;0.98;100.00;99587.66;12175636;19;20023;-84
2023/03/15 02:42:19;;;;;;;5.40;1.92;;;;;;;0.96;100.00;99595.16;12195149;19;20010;-84
2023/03/15 02:46:21;;;;;;;5.22;1.38;;;;;;;0.91;100.00;99593.84;12195654;19;20048;-84
2023/03/15 02:50:23;;;;;;;4.22;1.92;;;;;;;0.90;100.00;99602.19;12175602;19;20010;-84
2023/03/15 02:54:28;;;;;;;2.90;1.38;;;;;;;0.94;100.00;99608.06;12193365;19;20083;-84
2023/03/15 02:58:31;;;;;;;5.13;1.70;;;;;;;0.94;100.00;99602.66;12204493;19;20006;-83
2023/03/15 03:02:35;;;;;;;7.03;1.80;;;;;;;0.93;100.00;99609.13;12185490;19;20132;-83
2023/03/15 03:06:37;;;;;;;7.30;1.55;;;;;;;0.92;100.00;99613.69;12207734;19;20021;-84
2023/03/15 03:10:40;;;;;;;8.02;1.88;;;;;;;0.94;100.00;99618.94;12207747;19;20003;-84
2023/03/15 03:14:42;;;;;;;4.03;1.25;;;;;;;0.94;100.00;99624.34;12182466;19;20006;-84
2023/03/15 03:18:48;;;;;;;5.60;1.80;;;;;;;0.90;100.00;99626.63;12206912;19;20023;-83
2023/03/15 03:22:50;;;;;;;6.77;2.10;;;;;;;0.84;100.00;99649.91;12205625;19;21127;-83
2023/03/15 03:26:56;;;;;;;4.30;2.00;;;;;;;0.80;100.00;99645.06;12183934;19;20589;-84
2023/03/15 03:31:01;;;;;;;7.45;2.10;;;;;;;0.79;100.00;99655.06;12207671;19;20077;-83
2023/03/15 03:35:04;;;;;;;4.45;1.85;;;;;;;0.82;100.00;99657.41;12181050;19;20137;-83
2023/03/15 03:39:07;;;;;;;5.65;1.90;;;;;;;0.82;100.00;99659.28;12197549;19;20014;-83
2023/03/15 03:43:09;;;;;;;7.60;1.70;;;;;;;0.83;100.00;99664.53;12202723;19;20014;-84
2023/03/15 03:47:11;;;;;;;5.32;1.90;;;;;;;0.83;100.00;99664.53;12183130;19;20006;-84
2023/03/15 03:51:13;;;;;;;4.80;1.50;;;;;;;0.79;100.00;99668.63;12208979;19;20013;-83
2023/03/15 03:55:15;;;;;;;3.92;1.83;;;;;;;0.75;100.00;99677.34;12228495;19;20010;-84
2023/03/15 03:59:18;;;;;;;;;;;;;;;0.70;100.00;99672.47;12201350;19;20011;-84
2023/03/15 04:03:27;;;;;;;5.78;1.90;;;;;;;0.69;100.00;99678.94;12215022;19;20332;-84
2023/03/15 04:07:38;;;;;;;7.32;1.77;;;;;;;0.67;100.00;99678.28;12215859;19;20003;-83
2023/03/15 04:11:41;;;;;;;9.23;2.45;;;;;;;0.67;100.00;99681.00;12195547;19;20010;-83
2023/03/15 04:15:44;;;;;;;9.68;2.38;;;;;;;0.68;100.00;99679.97;12213375;19;20003;-83
2023/03/15 04:19:46;;;;;;;7.60;2.30;;;;;;;0.68;100.00;99677.25;12215262;19;20034;-83
2023/03/15 04:23:51;;;;;;;7.72;2.10;;;;;;;0.73;100.00;99682.94;12187333;19;20042;-83
2023/03/15 04:28:11;;;;;;;6.18;1.75;;;;;;;0.78;100.00;99685.94;12211551;19;20014;-83
2023/03/15 04:32:23;;;;;;;5.45;1.52;;;;;;;0.78;100.00;99688.66;12184132;19;20590;-82
2023/03/15 04:36:41;;;;;;;4.65;1.58;;;;;;;0.82;100.00;99699.97;12210014;19;20019;-83
2023/03/15 04:41:09;;;;;;;4.97;1.85;;;;;;;0.86;100.00;99702.13;12200190;19;20019;-83
2023/03/15 04:45:30;;;;;;;7.18;1.90;;;;;;;0.87;100.00;99706.50;12214655;19;20018;-83
2023/03/15 04:49:51;;;;;;;7.78;2.10;;;;;;;0.87;100.00;99713.81;12211723;19;20484;-82
2023/03/15 04:54:13;;;;;;;10.88;2.50;;;;;;;0.86;100.00;99710.25;12189868;19;20019;-82
2023/03/15 04:58:49;;;;;;;6.63;2.22;;;;;;;0.88;100.00;99713.59;12255290;19;20006;-83
2023/03/15 05:02:57;;;;;;;4.47;2.00;;;;;;;0.95;100.00;99704.69;12201412;19;20011;-83
2023/03/15 05:07:13;;;;;;;7.68;2.00;;;;;;;1.04;100.00;99701.72;12210025;19;20019;-86
2023/03/15 05:11:30;;;;;;;9.15;2.00;;;;;;;1.19;100.00;99696.25;12187775;19;20007;-82
2023/03/15 05:15:50;;;;;;;7.10;1.63;;;;;;;1.33;100.00;99698.03;12210971;19;20030;-83
2023/03/15 05:20:11;;;;;;;6.32;1.80;;;;;;;1.51;100.00;99704.91;12193029;19;20023;-83
2023/03/15 05:24:30;;;;;;;5.40;2.00;;;;;;;1.65;100.00;99704.00;12208929;19;20476;-83
2023/03/15 05:28:47;;;;;;;3.92;1.48;;;;;;;1.74;100.00;99710.16;12207844;19;20017;-82
2023/03/15 05:33:03;;;;;;;6.10;1.83;;;;;;;1.86;100.00;99707.75;12185229;19;20006;-82
2023/03/15 05:37:24;;;;;;;5.97;1.67;;;;;;;1.96;100.00;99719.09;12207743;19;20014;-83
2023/03/15 05:41:42;;;;;;;8.57;2.05;;;;;;;2.00;100.00;99720.41;12186047;19;20002;-83
2023/03/15 05:46:07;;;;;;;4.95;1.70;;;;;;;2.08;100.00;99705.81;12201600;19;20014;-83
2023/03/15 05:50:42;;;;;;;9.82;2.05;;;;;;;2.05;100.00;99713.34;12181400;19;20046;-82
2023/03/15 05:54:56;;;;;;;11.15;2.08;;;;;;;2.17;100.00;99710.94;12199806;19;20007;-82
2023/03/15 05:59:05;;;;;;;6.93;1.80;;;;;;;2.22;100.00;99719.31;12185005;19;20002;-82
2023/03/15 06:03:27;;;;;;;6.03;1.60;;;;;;;2.34;100.00;99722.34;12203843;19;20098;-82
2023/03/15 06:07:37;;;;;;;5.05;2.38;;;;;;;2.35;100.00;99731.31;12205248;19;20014;-82
2023/03/15 06:11:38;;;;;;;9.73;2.47;;;;;;;2.39;100.00;99735.34;12186698;19;20134;-82
2023/03/15 06:15:45;;;;;;;4.50;2.25;;;;;;;2.45;100.00;99753.59;12226163;19;20086;-81
2023/03/15 06:19:48;;;;;;;6.68;2.45;;;;;;;2.48;100.00;99750.47;12265425;19;20018;-80
2023/03/15 06:23:50;;;;;;;8.05;3.25;;;;;;;2.50;100.00;99759.28;12233012;19;21645;-82
2023/03/15 06:27:52;;;;;;;9.48;2.70;;;;;;;2.57;100.00;99770.19;12208132;19;20034;-82
2023/03/15 06:31:54;;;;;;;10.15;3.83;;;;;;;2.57;100.00;99771.03;12209512;19;20026;-81
2023/03/15 06:35:58;;;;;;;7.90;3.05;;;;;;;2.50;100.00;99772.88;12192949;19;20010;-82
2023/03/15 06:40:07;;;;;;;6.60;2.58;;;;;;;2.58;100.00;99778.16;12215553;19;20034;-83
2023/03/15 06:44:10;;;;;;;7.50;2.60;;;;;;;2.55;100.00;99775.81;12186353;19;20118;-82
2023/03/15 06:48:13;;;;;;;12.65;3.40;;;;;;;2.59;100.00;99778.97;12208666;19;20002;-82
2023/03/15 06:52:16;;;;;;;7.10;2.72;;;;;;;2.60;100.00;99781.50;12204869;19;20111;-82
2023/03/15 06:56:18;;;;;;;5.43;2.45;;;;;;;2.60;100.00;99784.25;12178682;19;20003;-82
2023/03/15 07:00:21;;;;;;;9.25;3.28;;;;;;;2.64;100.00;99801.00;12206760;19;20007;-83
2023/03/15 07:04:23;;;;;;;6.47;2.13;;;;;;;2.60;100.00;99803.28;12204116;19;20007;-82
2023/03/15 07:08:25;;;;;;;8.02;2.97;;;;;;;2.64;100.00;99803.72;12186221;19;20010;-83
2023/03/15 07:12:28;;;;;;;10.60;3.63;;;;;;;2.56;100.00;99818.31;12205454;19;20792;-82
2023/03/15 07:16:31;;;;;;;9.35;3.30;;;;;;;2.58;100.00;99816.22;12207090;19;20006;-82
2023/03/15 07:20:33;;;;;;;8.30;3.33;;;;;;;2.57;100.00;99813.72;12185932;19;20211;-82
2023/03/15 07:24:38;;;;;;;10.52;3.85;;;;;;;2.57;100.00;99828.16;12205002;19;20023;-82
2023/03/15 07:28:39;;;;;;;9.30;3.85;;;;;;;2.69;100.00;99826.56;12207854;19;20030;-82
2023/03/15 07:32:41;;;;;;;7.50;4.07;;;;;;;2.84;100.00;99831.06;12184611;19;20123;-82
2023/03/15 07:36:45;;;;;;;11.50;3.95;;;;;;;2.95;100.00;99839.53;12202475;19;20027;-82
2023/03/15 07:40:48;;;;;;;;;;;;;;;3.15;100.00;99846.97;12204793;19;20026;-82
2023/03/15 07:44:49;;;;;;;10.63;4.10;;;;;;;3.23;100.00;99846.81;12176363;19;20348;-82
2023/03/15 07:48:51;;;;;;;13.32;4.35;;;;;;;3.27;100.00;99856.28;12203383;19;20013;-82
2023/03/15 07:52:54;;;;;;;12.77;4.60;;;;;;;3.29;100.00;99854.16;12200970;19;20472;-82
2023/03/15 07:56:56;;;;;;;10.00;4.65;;;;;;;3.26;100.00;99861.91;12223135;19;20029;-82
2023/03/15 08:01:00;;;;;;;10.07;4.35;;;;;;;3.23;100.00;99868.59;12226235;19;20002;-83
2023/03/15 08:05:03;;;;;;;5.90;3.25;;;;;;;3.12;100.00;99866.41;12164050;19;20020;-83
2023/03/15 08:09:05;;;;;;;9.30;4.45;;;;;;;3.16;100.00;99874.00;12216665;19;20010;-83
2023/03/15 08:13:08;;;;;;;11.52;5.03;;;;;;;3.01;100.00;99881.44;12232021;19;20034;-83
2023/03/15 08:17:11;;;;;;;11.27;5.13;;;;;;;3.01;100.00;99876.00;12239910;19;19998;-83
2023/03/15 08:21:15;;;;;;;9.32;3.95;;;;;;;2.93;100.00;99878.88;12259856;19;20053;-83
2023/03/15 08:25:22;;;;;;;9.82;4.32;;;;;;;2.97;100.00;99891.91;12257197;19;20007;-83
2023/03/15 08:29:24;;;;;;;11.18;4.75;;;;;;;3.04;100.00;99883.78;12228144;19;20017;-80
2023/03/15 08:33:29;;;;;;;10.68;4.38;;;;;;;2.98;100.00;99890.00;12211430;19;20018;-82
2023/03/15 08:37:31;;;;;;;7.60;4.00;;;;;;;3.06;100.00;99895.28;12208442;19;20002;-80
2023/03/15 08:41:33;;;;;;;9.35;4.88;;;;;;;3.18;100.00;99887.41;12188325;19;21203;-81
2023/03/15 08:45:35;;;;;;;12.38;5.00;;;;;;;3.27;100.00;99894.41;12202296;19;20086;-81
2023/03/15 08:49:57;;;;;;;16.57;6.00;;;;;;;3.31;100.00;99906.56;12208721;19;20002;-81
2023/03/15 08:54:04;;;;;;;13.32;4.60;;;;;;;3.17;100.00;99919.25;12179995;19;20053;-80
2023/03/15 08:58:06;;;;;;;12.02;4.75;;;;;;;3.09;100.00;99911.22;12206885;19;20012;-83
2023/03/15 09:02:10;;;;;;;13.23;5.07;;;;;;;3.15;100.00;99923.19;12187191;19;20038;-83
2023/03/15 09:06:12;;;;;;;9.57;5.00;;;;;;;3.22;100.00;99929.56;12202542;19;20002;-83
2023/03/15 09:10:16;;;;;;;10.38;4.68;;;;;;;3.25;100.00;99933.75;12206891;19;20006;-82
2023/03/15 09:14:17;;;;;;;11.45;4.85;;;;;;;3.19;100.00;99938.94;12178808;19;20007;-83
2023/03/15 09:18:20;;;;;;;12.32;5.25;;;;;;;3.17;100.00;99945.63;12203598;19;20127;-83
2023/03/15 09:22:21;;;;;;;11.00;5.32;;;;;;;3.14;100.00;99946.88;12205777;19;20006;-83
2023/03/15 09:26:39;;;;;;;17.05;5.47;;;;;;;3.05;100.00;99945.34;12182957;19;20472;-83
2023/03/15 09:30:41;;;;;;;14.47;5.83;;;;;;;3.16;100.00;99958.41;12205419;19;20106;-83
2023/03/15 09:34:43;;;;;;;12.27;5.63;;;;;;;3.16;100.00;99955.69;12206384;19;20022;-82
2023/03/15 09:38:46;;;;;;;10.70;5.25;;;;;;;3.11;100.00;99958.16;12193405;19;20007;-82
2023/03/15 09:43:00;;;;;;;10.52;5.70;;;;;;;3.22;100.00;99958.66;12250140;19;19999;-83
2023/03/15 09:47:12;;;;;;;12.70;5.75;;;;;;;3.20;100.00;99967.03;12227954;19;20325;-83
2023/03/15 09:51:40;;;;;;;11.63;5.97;;;;;;;3.31;100.00;99971.09;12209972;19;19999;-83
2023/03/15 09:55:45;;;;;;;14.10;5.53;;;;;;;3.32;100.00;99970.03;12205063;19;20051;-81
2023/03/15 09:59:51;;;;;;;15.40;6.70;;;;;;;3.32;100.00;99975.50;12182628;19;20860;-83
2023/03/15 10:03:53;;;;;;;12.30;5.07;;;;;;;3.38;100.00;99978.25;12201953;19;20007;-81
2023/03/15 10:07:54;;;;;;;11.90;6.00;;;;;;;3.54;100.00;99984.44;12213966;19;20020;-80
2023/03/15 10:12:40;;;;;;;11.57;5.40;;;;;;;3.61;100.00;99980.72;12194729;19;20006;-81
2023/03/15 10:16:46;;;;;;;18.80;4.75;;;;;;;3.61;100.00;99975.25;12211956;19;20026;-81
2023/03/15 10:20:55;;;;;;;11.77;5.00;;;;;;;3.88;100.00;99978.13;12194735;19;20017;-82
2023/03/15 10:25:10;;;;;;;11.07;5.13;;;;;;;4.06;100.00;99978.41;12212382;19;20011;-80
2023/03/15 10:29:16;;;;;;;12.85;4.85;;;;;;;4.32;100.00;99987.75;12195463;19;21140;-81
2023/03/15 10:33:23;;;;;;;9.77;4.78;;;;;;;4.73;100.00;99981.34;12215680;19;20721;-82
2023/03/15 10:37:26;;;;;;;7.97;4.40;;;;;;;5.24;100.00;99978.03;12214414;19;20038;-82
2023/03/15 10:41:36;;;;;;;12.80;4.45;;;;;;;5.29;100.00;99982.84;12196792;19;20007;-81
2023/03/15 10:45:38;;;;;;;9.25;4.25;;;;;;;5.62;100.00;99971.84;12216025;19;20042;-82
2023/03/15 10:49:43;;;;;;;14.02;4.18;;;;;;;5.88;100.00;99974.53;12214833;19;20025;-83
2023/03/15 10:53:56;;;;;;;8.02;3.60;;;;;;;6.00;100.00;99976.63;12193769;19;20561;-81
2023/03/15 10:58:10;;;;;;;11.55;4.10;;;;;;;6.07;100.00;99972.00;12214739;19;20650;-85
2023/03/15 11:02:12;;;;;;;12.30;4.43;;;;;;;6.14;100.00;99979.09;12192877;19;20504;-81
2023/03/15 11:06:20;;;;;;;10.38;3.55;;;;;;;6.03;100.00;99978.94;12227023;19;20014;-82
2023/03/15 11:10:25;;;;;;;10.00;4.38;;;;;;;5.81;100.00;99976.44;12249554;19;20040;-80
2023/03/15 11:14:37;;;;;;;6.88;3.55;;;;;;;6.00;100.00;99985.66;12194060;19;20006;-82
2023/03/15 11:19:00;;;;;;;8.70;4.05;;;;;;;6.03;100.00;99982.50;12211743;19;20003;-84
2023/03/15 11:23:18;;;;;;;11.02;3.72;;;;;;;5.98;100.00;99985.06;12200253;19;20015;-82
2023/03/15 11:27:23;;;;;;;10.23;4.07;;;;;;;5.89;100.00;99984.44;12215527;19;20030;-83
2023/03/15 11:31:27;;;;;;;8.85;3.67;;;;;;;5.88;100.00;99990.09;12213754;19;20369;-83
2023/03/15 11:35:37;;;;;;;9.93;4.43;;;;;;;5.86;100.00;99989.47;12189999;19;20475;-82
2023/03/15 11:39:50;;;;;;;9.80;4.63;;;;;;;5.88;100.00;99985.47;12213200;19;21633;-82
2023/03/15 11:44:25;;;;;;;8.45;4.35;;;;;;;5.92;100.00;100000.41;12211689;19;20017;-81
2023/03/15 11:48:35;;;;;;;14.27;4.57;;;;;;;5.60;100.00;99995.84;12182450;19;20083;-81
2023/03/15 11:52:39;;;;;;;12.07;5.22;;;;;;;5.40;100.00;99998.59;12188209;19;20021;-84
2023/03/15 11:56:43;;;;;;;35.30;8.38;;;;;;;5.49;100.00;99994.59;12230387;19;20026;-84
2023/03/15 12:00:45;;;;;;;107.13;22.20;;;;;;;5.70;100.00;100007.19;12261254;19;20003;-85
2023/03/15 12:04:50;;;;;;;9.23;4.50;;;;;;;6.04;100.00;100007.94;12203696;19;20287;-83
2023/03/15 12:08:53;;;;;;;8.55;4.05;;;;;;;6.53;100.00;100010.06;12208295;19;20006;-83
2023/03/15 12:12:58;;;;;;;9.50;4.88;;;;;;;6.79;100.00;99997.28;12209794;19;20027;-83
2023/03/15 12:17:22;;;;;;;11.95;4.82;;;;;;;6.90;100.00;99998.47;12184367;19;20526;-82
2023/03/15 12:21:38;;;;;;;10.98;5.43;;;;;;;6.76;100.00;100012.25;12207227;19;20561;-82
2023/03/15 12:25:58;;;;;;;10.80;5.85;;;;;;;6.62;100.00;100018.88;12187681;19;20007;-82
2023/03/15 12:30:01;;;;;;;14.18;5.85;;;;;;;6.47;100.00;100024.63;12209901;19;20105;-81
2023/03/15 12:34:03;;;;;;;9.50;5.47;;;;;;;6.35;100.00;100020.91;12208934;19;20003;-81
2023/03/15 12:38:15;;;;;;;11.05;5.28;;;;;;;6.32;100.00;100037.75;12188400;19;20007;-82
2023/03/15 12:42:46;;;;;;;10.63;5.55;;;;;;;6.25;100.00;100035.06;12208234;19;20409;-80
2023/03/15 12:46:56;;;;;;;5.20;3.17;;;;;;;6.22;100.00;100030.00;12183043;19;20006;-81
2023/03/15 12:51:02;;;;;;;9.52;4.93;;;;;;;6.29;100.00;100043.66;12208180;19;20515;-82
2023/03/15 12:55:14;;;;;;;10.55;5.68;;;;;;;6.52;100.00;100027.56;12207049;19;20060;-82
2023/03/15 12:59:40;;;;;;;8.05;4.00;;;;;;;7.84;100.00;100021.28;12187884;19;20002;-81
2023/03/15 13:03:42;;;;;;;8.45;3.60;;;;;;;9.67;100.00;100021.97;12209604;19;20076;-82
2023/03/15 13:07:53;;;;;;;9.23;4.53;;;;;;;11.32;91.75;100017.63;12184451;19;20050;-84
2023/03/15 13:12:19;;;;;;;7.60;4.10;;;;;;;12.74;85.81;100020.78;12192425;19;20002;-80
2023/03/15 13:16:37;;;;;;;8.20;3.50;;;;;;;12.33;82.47;100022.22;12200716;19;20024;-78
2023/03/15 13:20:54;;;;;;;5.35;3.78;;;;;;;11.77;83.74;100022.22;12180447;19;20033;-79
2023/03/15 13:25:23;;;;;;;6.30;2.85;;;;;;;11.40;78.05;100013.63;12200072;19;20023;-80
2023/03/15 13:29:29;;;;;;;6.13;2.92;;;;;;;11.00;76.42;100011.00;12182203;19;20014;-79
2023/03/15 13:33:31;;;;;;;4.28;2.55;;;;;;;10.37;79.71;100010.03;12202125;19;19999;-81
2023/03/15 13:37:33;;;;;;;5.28;3.40;;;;;;;10.18;82.80;100015.69;12181715;19;20010;-79
2023/03/15 13:41:37;;;;;;;6.13;2.88;;;;;;;10.04;82.20;100017.03;12199912;19;20006;-79
2023/03/15 13:45:43;;;;;;;3.92;2.10;;;;;;;9.93;78.97;99998.59;12201016;19;20031;-81
2023/03/15 13:49:45;;;;;;;3.65;2.33;;;;;;;10.27;79.40;100005.16;12179419;19;20023;-82
2023/03/15 13:53:50;;;;;;;3.92;2.22;;;;;;;10.54;73.00;100001.84;12201313;19;20026;-82
2023/03/15 13:57:56;;;;;;;4.85;2.47;;;;;;;10.38;74.12;99984.16;12203075;19;20027;-83
2023/03/15 14:02:01;;;;;;;3.50;1.90;;;;;;;10.30;74.22;99987.31;12180592;19;20043;-83
2023/03/15 14:06:04;;;;;;;2.35;1.48;;;;;;;10.21;71.29;99993.16;12200668;19;20007;-82
2023/03/15 14:10:08;;;;;;;3.42;2.03;;;;;;;9.83;70.66;99993.69;12199146;19;20018;-82
2023/03/15 14:14:31;;;;;;;3.33;2.38;;;;;;;9.38;72.33;100002.53;12179354;19;20017;-81
2023/03/15 14:18:36;;;;;;;2.85;1.02;;;;;;;9.07;73.33;100009.16;12202137;19;21403;-82
2023/03/15 14:22:40;;;;;;;2.90;1.70;;;;;;;9.02;74.51;100009.06;12177960;19;20042;-82
2023/03/15 14:26:49;;;;;;;4.30;2.40;;;;;;;8.98;73.81;100000.41;12210166;19;20003;-82
2023/03/15 14:30:54;;;;;;;3.50;1.95;;;;;;;9.29;74.04;100009.47;12244276;19;20514;-83
2023/03/15 14:35:01;;;;;;;4.90;2.13;;;;;;;9.53;72.60;99999.34;12226832;19;20006;-82
2023/03/15 14:39:03;;;;;;;5.10;1.98;;;;;;;9.78;74.52;100010.09;12211334;19;20011;-84
2023/03/15 14:43:07;;;;;;;3.33;1.98;;;;;;;9.78;69.12;100010.91;12211433;19;20007;-81
2023/03/15 14:47:14;;;;;;;3.25;1.42;;;;;;;9.70;66.45;100011.31;12179609;19;20067;-81
2023/03/15 14:51:19;;;;;;;4.05;2.20;;;;;;;9.55;67.33;100014.53;12203467;19;20011;-82
2023/03/15 14:55:29;;;;;;;5.70;2.38;;;;;;;9.28;67.60;100016.03;12198002;19;20018;-81
2023/03/15 14:59:32;;;;;;;3.70;2.30;;;;;;;9.27;70.49;100014.38;12217580;19;20070;-81
2023/03/15 15:03:40;;;;;;;3.45;1.83;;;;;;;8.99;67.30;100015.84;12211773;19;20002;-82
2023/03/15 15:07:43;;;;;;;3.63;1.90;;;;;;;8.88;67.89;100016.66;12190023;19;20963;-81
2023/03/15 15:11:45;;;;;;;4.43;2.30;;;;;;;8.77;68.99;100022.94;12212007;19;20006;-82
2023/03/15 15:15:47;;;;;;;;;;;;;;;8.65;69.82;100015.47;12210395;19;20619;-81
2023/03/15 15:19:56;;;;;;;2.47;1.55;;;;;;;8.67;68.20;100029.00;12191913;19;19915;-82
2023/03/15 15:24:01;;;;;;;2.72;1.60;;;;;;;8.47;66.86;100034.75;12214098;19;20022;-82
2023/03/15 15:28:03;;;;;;;3.35;1.80;;;;;;;8.32;66.06;100028.78;12214843;19;20015;-80
2023/03/15 15:32:05;;;;;;;2.38;1.38;;;;;;;8.27;64.48;100043.22;12199143;19;20010;-81
2023/03/15 15:36:12;;;;;;;2.65;1.48;;;;;;;8.29;63.21;100042.97;12214446;19;20011;-80
2023/03/15 15:40:21;;;;;;;2.53;1.30;;;;;;;8.50;62.27;100039.78;12213025;19;20468;-82
2023/03/15 15:44:26;;;;;;;3.20;1.60;;;;;;;8.66;60.64;100046.56;12197071;19;20018;-81
2023/03/15 15:48:29;;;;;;;3.53;1.55;;;;;;;8.77;57.90;100039.41;12208559;19;20043;-80
2023/03/15 15:52:31;;;;;;;2.63;1.70;;;;;;;8.74;55.90;100040.72;12189377;19;20026;-82
2023/03/15 15:56:38;;;;;;;2.90;1.55;;;;;;;8.80;55.47;100055.44;12207898;19;20034;-81
2023/03/15 16:00:41;;;;;;;3.47;1.30;;;;;;;8.70;55.58;100060.66;12210601;19;20074;-81
2023/03/15 16:04:43;;;;;;;3.58;1.40;;;;;;;8.55;58.19;100059.16;12186661;19;20377;-80
2023/03/15 16:08:46;;;;;;;2.40;1.20;;;;;;;8.49;55.02;100051.84;12210516;19;20031;-80
2023/03/15 16:12:50;;;;;;;3.65;2.03;;;;;;;8.33;53.78;100056.03;12213229;19;20365;-81
2023/03/15 16:16:52;;;;;;;4.10;1.20;;;;;;;8.17;52.08;100062.09;12193189;19;20007;-82
2023/03/15 16:20:54;;;;;;;2.13;1.10;;;;;;;8.13;53.90;100067.22;12216070;19;20003;-80
2023/03/15 16:24:59;;;;;;;3.55;1.17;;;;;;;8.09;54.20;100066.00;12214175;19;20010;-81
2023/03/15 16:29:01;;;;;;;2.35;1.33;;;;;;;8.04;53.55;100060.34;12209725;19;20006;-82
2023/03/15 16:33:16;;;;;;;9.02;5.45;;;;;;;7.96;54.90;100060.63;12223175;19;20010;-81
2023/03/15 16:37:22;;;;;;;6.00;2.28;;;;;;;7.90;54.98;100061.53;12225536;19;20034;-82
2023/03/15 16:41:24;;;;;;;3.15;1.60;;;;;;;7.78;52.98;100069.66;12202649;19;20096;-81
2023/03/15 16:45:26;;;;;;;3.83;2.30;;;;;;;7.69;56.44;100074.59;12224195;19;20047;-81
2023/03/15 16:49:28;;;;;;;3.38;1.90;;;;;;;7.58;56.51;100075.31;12208293;19;20014;-81
2023/03/15 16:53:30;;;;;;;4.68;1.77;;;;;;;7.43;57.71;100078.41;12234978;19;20002;-82
2023/03/15 16:57:32;;;;;;;2.90;1.70;;;;;;;7.34;59.17;100076.16;12226790;19;20007;-81
2023/03/15 17:01:34;;;;;;;4.07;1.73;;;;;;;7.20;59.47;100095.44;12210647;19;20041;-81
2023/03/15 17:05:46;;;;;;;5.05;1.38;;;;;;;6.97;60.02;100100.66;12234130;19;20018;-81
2023/03/15 17:09:48;;;;;;;5.20;2.00;;;;;;;6.76;61.43;100099.91;12240552;19;20403;-82
2023/03/15 17:13:50;;;;;;;4.75;1.77;;;;;;;6.56;64.18;100104.63;12216915;19;20014;-82
2023/03/15 17:17:57;;;;;;;4.38;1.60;;;;;;;6.32;66.77;100108.91;12239453;19;20007;-82
2023/03/15 17:21:59;;;;;;;4.05;1.77;;;;;;;6.07;68.86;100106.88;12240995;19;20041;-82
2023/03/15 17:26:01;;;;;;;2.45;1.30;;;;;;;5.82;71.33;100122.22;12199478;19;20010;-82
2023/03/15 17:30:14;;;;;;;3.07;1.50;;;;;;;5.51;73.85;100122.88;12225223;19;20003;-81
2023/03/15 17:34:17;;;;;;;6.65;2.03;;;;;;;5.19;75.19;100122.59;12239810;19;20090;-80
2023/03/15 17:38:21;;;;;;;3.30;1.63;;;;;;;4.95;76.16;100132.22;12247716;19;20005;-82
2023/03/15 17:42:22;;;;;;;7.75;3.05;;;;;;;4.74;77.81;100133.19;12263530;19;20022;-83
2023/03/15 17:46:31;;;;;;;4.38;1.98;;;;;;;4.56;79.11;100142.75;12199934;19;20006;-81
2023/03/15 17:50:34;;;;;;;6.20;2.00;;;;;;;4.36;79.94;100140.97;12212550;19;20596;-81
2023/03/15 17:54:36;;;;;;;4.63;2.05;;;;;;;4.19;80.56;100151.34;12214877;19;20018;-81
2023/03/15 17:58:37;;;;;;;4.15;2.28;;;;;;;4.04;81.61;100154.19;12197432;19;20007;-81
2023/03/15 18:02:40;;;;;;;5.75;1.98;;;;;;;3.89;83.33;100151.56;12218275;19;20007;-81
2023/03/15 18:06:50;;;;;;;4.38;1.83;;;;;;;3.77;83.93;100159.44;12216171;19;20009;-81
2023/03/15 18:10:53;;;;;;;4.85;2.05;;;;;;;3.64;85.01;100160.16;12197124;19;20479;-81
2023/03/15 18:14:54;;;;;;;;;;;;;;;3.53;86.69;100163.41;12215146;19;20013;-81
2023/03/15 18:18:57;;;;;;;3.53;1.65;;;;;;;3.43;86.61;100165.63;12215068;19;20324;-81
2023/03/15 18:22:58;;;;;;;5.27;1.90;;;;;;;3.35;87.35;100182.94;12188569;19;20006;-81
2023/03/15 18:27:00;;;;;;;5.60;2.40;;;;;;;3.28;88.53;100186.66;12213887;19;20002;-81
2023/03/15 18:31:02;;;;;;;4.75;2.15;;;;;;;3.22;89.13;100192.88;12226214;19;20007;-83
2023/03/15 18:35:05;;;;;;;5.55;1.77;;;;;;;3.14;89.41;100186.50;12196313;19;20019;-80
2023/03/15 18:39:06;;;;;;;8.05;1.83;;;;;;;3.06;89.61;100178.44;12220474;19;20090;-81
2023/03/15 18:43:13;;;;;;;8.47;2.23;;;;;;;2.98;90.30;100181.28;12225186;19;20003;-81
2023/03/15 18:47:14;;;;;;;7.25;2.50;;;;;;;2.88;90.96;100186.19;12200348;19;20040;-81
2023/03/15 18:51:18;;;;;;;4.35;2.03;;;;;;;2.81;92.69;100188.00;12225780;19;20006;-81
2023/03/15 18:55:21;;;;;;;5.25;2.50;;;;;;;2.74;92.34;100188.75;12226807;19;20002;-81
2023/03/15 18:59:22;;;;;;;7.13;3.08;;;;;;;2.71;92.26;100186.41;12200004;19;20010;-81
2023/03/15 19:03:26;;;;;;;4.60;2.00;;;;;;;2.69;92.66;100187.63;12218264;19;20002;-81
2023/03/15 19:07:27;;;;;;;5.18;1.80;;;;;;;2.65;92.58;100187.16;12196519;19;20026;-80